Bay Terrace, New York
Current Conditions -  °F | °C
As of 8:51 PM on Monday 20 Oct 2014 (Local Time) from KLGA Reporting Station
Broken Clouds Broken Clouds  
Wind Chill: 57°   Ceiling: 25000
Heat Index: 57°   Visibility: 10mi
Dew Point: 39°   Wind: 6mph
Humidity: 51%   Direction: 170°S
Pressure: 29.98"   Gusts: NA
Location:  40.7825°N, 73.7809°W
Report Text: KLGA 210051Z 17005KT 10SM BKN250 14/04 A2998 RMK AO2 SLP151 T01390039
Loading
Personal Weather Stations






























Interactive Weather Map
Tropical Storm Tracking
New forecast layout! Learn more

10-Day Weather Forecast

Advertisements
Track Severe Weather on mobile